createdAt,value
2023-03-25T00:01:20.418Z,14.83
2023-03-25T00:03:51.371Z,14.79
2023-03-25T00:06:20.475Z,14.76
2023-03-25T00:08:49.098Z,14.75
2023-03-25T00:11:17.497Z,14.69
2023-03-25T00:13:46.156Z,14.64
2023-03-25T00:16:14.953Z,14.59
2023-03-25T00:18:43.681Z,14.55
2023-03-25T00:21:12.604Z,14.53
2023-03-25T00:23:42.244Z,14.52
2023-03-25T00:26:10.590Z,14.59
2023-03-25T00:28:39.933Z,14.64
2023-03-25T00:31:16.364Z,14.58
2023-03-25T00:33:44.827Z,14.48
2023-03-25T00:36:16.098Z,14.45
2023-03-25T00:38:44.499Z,14.40
2023-03-25T00:41:14.513Z,14.38
2023-03-25T00:43:42.787Z,14.36
2023-03-25T00:46:11.384Z,14.28
2023-03-25T00:48:39.611Z,14.22
2023-03-25T00:51:09.571Z,14.16
2023-03-25T00:53:38.618Z,14.08
2023-03-25T00:56:07.453Z,14.04
2023-03-25T00:58:35.687Z,13.95
2023-03-25T01:01:11.698Z,13.88
2023-03-25T01:03:44.772Z,13.88
2023-03-25T01:06:15.326Z,13.89
2023-03-25T01:08:45.705Z,13.84
2023-03-25T01:11:22.882Z,13.82
2023-03-25T01:13:52.391Z,13.73
2023-03-25T01:16:20.715Z,13.64
2023-03-25T01:18:49.095Z,13.57
2023-03-25T01:21:17.775Z,13.46
2023-03-25T01:23:46.802Z,13.39
2023-03-25T01:26:15.472Z,13.37
2023-03-25T01:28:45.110Z,13.23
2023-03-25T01:31:15.397Z,13.10
2023-03-25T01:33:43.656Z,12.95
2023-03-25T01:36:15.162Z,12.82
2023-03-25T01:38:44.131Z,12.74
2023-03-25T01:41:12.383Z,12.65
2023-03-25T01:43:40.699Z,12.54
2023-03-25T01:46:18.058Z,12.42
2023-03-25T01:48:47.320Z,12.34
2023-03-25T01:51:22.525Z,12.22
2023-03-25T01:53:54.174Z,12.18
2023-03-25T01:56:28.346Z,12.18
2023-03-25T01:58:57.538Z,12.10
2023-03-25T02:01:27.551Z,12.02
2023-03-25T02:04:03.665Z,11.98
2023-03-25T02:06:48.412Z,11.91
2023-03-25T02:09:22.004Z,11.82
2023-03-25T02:11:50.300Z,11.73
2023-03-25T02:14:24.278Z,11.65
2023-03-25T02:17:05.078Z,11.57
2023-03-25T02:19:52.465Z,11.44
2023-03-25T02:22:57.524Z,11.38
2023-03-25T02:25:37.008Z,11.34
2023-03-25T02:28:07.935Z,11.29
2023-03-25T02:30:51.877Z,11.24
2023-03-25T02:33:41.295Z,11.23
2023-03-25T02:36:34.293Z,11.20
2023-03-25T02:39:04.984Z,11.20
2023-03-25T02:42:09.000Z,11.09
2023-03-25T02:44:48.466Z,10.97
2023-03-25T02:47:20.650Z,10.90
2023-03-25T02:49:56.113Z,10.88
2023-03-25T02:52:35.790Z,10.78
2023-03-25T02:55:06.857Z,10.71
2023-03-25T02:57:37.224Z,10.65
2023-03-25T03:00:17.147Z,10.60
2023-03-25T03:03:01.258Z,10.56
2023-03-25T03:05:34.837Z,10.54
2023-03-25T03:08:15.707Z,10.51
2023-03-25T03:11:04.604Z,10.47
2023-03-25T03:13:35.752Z,10.42
2023-03-25T03:16:20.442Z,10.41
2023-03-25T03:19:16.220Z,10.35
2023-03-25T03:22:04.746Z,10.31
2023-03-25T03:24:35.075Z,10.31
2023-03-25T03:27:40.730Z,10.29
2023-03-25T03:30:21.739Z,10.26
2023-03-25T03:33:26.265Z,10.24
2023-03-25T03:36:02.852Z,10.22
2023-03-25T03:38:37.900Z,10.23
2023-03-25T03:41:10.760Z,10.20
2023-03-25T03:43:56.682Z,10.21
2023-03-25T03:46:42.831Z,10.18
2023-03-25T03:49:18.849Z,10.17
2023-03-25T03:51:53.704Z,10.13
2023-03-25T03:54:30.926Z,10.12
2023-03-25T03:57:02.766Z,10.09
2023-03-25T03:59:39.971Z,10.05
2023-03-25T04:02:50.451Z,10.04
2023-03-25T04:05:21.190Z,10.05
2023-03-25T04:07:55.724Z,10.01
2023-03-25T04:10:40.953Z,10.00
2023-03-25T04:13:15.078Z,10.00
2023-03-25T04:15:44.648Z,10.00
2023-03-25T04:18:12.970Z,9.98
2023-03-25T04:20:45.943Z,9.94
2023-03-25T04:23:17.153Z,9.90
2023-03-25T04:25:54.085Z,9.87
2023-03-25T04:28:24.789Z,9.82
2023-03-25T04:30:57.793Z,9.79
2023-03-25T04:33:26.380Z,9.73
2023-03-25T04:35:54.686Z,9.70
2023-03-25T04:38:23.251Z,9.65
2023-03-25T04:40:51.473Z,9.64
2023-03-25T04:43:19.700Z,9.63
2023-03-25T04:45:55.453Z,9.58
2023-03-25T04:48:32.935Z,9.56
2023-03-25T04:51:02.628Z,9.53
2023-03-25T04:53:32.015Z,9.51
2023-03-25T04:56:01.007Z,9.49
2023-03-25T04:58:29.721Z,9.52
2023-03-25T05:00:58.212Z,9.54
2023-03-25T05:03:26.624Z,9.52
2023-03-25T05:05:54.949Z,9.47
2023-03-25T05:08:23.484Z,9.41
2023-03-25T05:10:51.801Z,9.39
2023-03-25T05:13:20.027Z,9.40
2023-03-25T05:15:49.334Z,9.38
2023-03-25T05:18:18.095Z,9.35
2023-03-25T05:20:51.594Z,9.31
2023-03-25T05:23:20.045Z,9.28
2023-03-25T05:25:52.805Z,9.28
2023-03-25T05:28:21.363Z,9.30
2023-03-25T05:30:50.006Z,9.28
2023-03-25T05:33:19.925Z,9.28
2023-03-25T05:35:48.830Z,9.27
2023-03-25T05:38:19.607Z,9.23
2023-03-25T05:40:49.240Z,9.21
2023-03-25T05:43:18.422Z,9.22
2023-03-25T05:45:47.796Z,9.20
2023-03-25T05:48:16.323Z,9.22
2023-03-25T05:50:44.839Z,9.26
2023-03-25T05:53:16.778Z,9.27
2023-03-25T05:55:45.357Z,9.24
2023-03-25T05:58:13.708Z,9.22
2023-03-25T06:00:41.895Z,9.26
2023-03-25T06:03:11.869Z,9.26
2023-03-25T06:05:43.659Z,9.27
2023-03-25T06:08:12.025Z,9.29
2023-03-25T06:10:41.071Z,9.30
2023-03-25T06:13:09.263Z,9.31
2023-03-25T06:15:41.413Z,9.32
2023-03-25T06:18:11.361Z,9.33
2023-03-25T06:20:39.554Z,9.32
2023-03-25T06:23:08.772Z,9.29
2023-03-25T06:25:37.013Z,9.26
2023-03-25T06:28:05.437Z,9.26
2023-03-25T06:30:33.697Z,9.27
2023-03-25T06:33:03.906Z,9.24
2023-03-25T06:35:32.172Z,9.20
2023-03-25T06:38:00.519Z,9.17
2023-03-25T06:40:29.201Z,9.14
2023-03-25T06:42:57.367Z,9.09
2023-03-25T06:45:25.563Z,9.07
2023-03-25T06:47:53.820Z,9.08
2023-03-25T06:50:22.134Z,9.06
2023-03-25T06:52:50.354Z,9.01
2023-03-25T06:55:18.591Z,8.99
2023-03-25T06:57:46.776Z,8.95
2023-03-25T07:00:15.347Z,8.92
2023-03-25T07:02:43.798Z,8.93
2023-03-25T07:05:12.197Z,8.94
2023-03-25T07:07:40.503Z,8.92
2023-03-25T07:10:09.479Z,8.94
2023-03-25T07:12:37.689Z,8.91
2023-03-25T07:15:06.417Z,8.88
2023-03-25T07:17:34.655Z,8.86
2023-03-25T07:20:02.993Z,8.83
2023-03-25T07:22:31.231Z,8.85
2023-03-25T07:24:59.572Z,8.87
2023-03-25T07:27:29.969Z,8.88
2023-03-25T07:29:58.196Z,8.92
2023-03-25T07:32:26.628Z,8.96
2023-03-25T07:34:54.883Z,8.96
2023-03-25T07:37:23.064Z,8.95
2023-03-25T07:39:51.344Z,8.90
2023-03-25T07:42:19.531Z,8.90
2023-03-25T07:44:47.801Z,8.87
2023-03-25T07:47:16.179Z,8.83
2023-03-25T07:49:45.056Z,8.79
2023-03-25T07:52:13.306Z,8.76
2023-03-25T07:54:41.652Z,8.74
2023-03-25T07:57:09.879Z,8.69
2023-03-25T07:59:38.087Z,8.69
2023-03-25T08:02:06.410Z,8.69
2023-03-25T08:04:34.630Z,8.69
2023-03-25T08:07:03.311Z,8.69
2023-03-25T08:09:31.600Z,8.73
2023-03-25T08:11:59.784Z,8.75
2023-03-25T08:14:28.154Z,8.77
2023-03-25T08:16:56.482Z,8.76
2023-03-25T08:19:24.737Z,8.74
2023-03-25T08:21:52.912Z,8.72
2023-03-25T08:24:21.344Z,8.74
2023-03-25T08:26:50.149Z,8.72
2023-03-25T08:29:18.776Z,8.70
2023-03-25T08:31:52.960Z,8.65
2023-03-25T08:34:22.875Z,8.62
2023-03-25T08:36:57.060Z,8.59
2023-03-25T08:39:30.852Z,8.52
2023-03-25T08:41:59.938Z,8.52
2023-03-25T08:44:28.486Z,8.51
2023-03-25T08:46:56.700Z,8.50
2023-03-25T08:49:25.058Z,8.50
2023-03-25T08:51:53.307Z,8.49
2023-03-25T08:54:22.313Z,8.45
2023-03-25T08:56:50.545Z,8.43
2023-03-25T08:59:18.967Z,8.42
2023-03-25T09:01:47.226Z,8.41
2023-03-25T09:04:15.576Z,8.36
2023-03-25T09:06:47.632Z,8.33
2023-03-25T09:09:32.108Z,8.32
2023-03-25T09:12:00.541Z,8.27
2023-03-25T09:14:28.716Z,8.24
2023-03-25T09:16:56.922Z,8.24
2023-03-25T09:19:25.488Z,8.25
2023-03-25T09:21:53.822Z,8.28
2023-03-25T09:24:23.547Z,8.29
2023-03-25T09:26:51.952Z,8.27
2023-03-25T09:29:20.137Z,8.26
2023-03-25T09:31:48.481Z,8.27
2023-03-25T09:34:16.649Z,8.26
2023-03-25T09:36:46.622Z,8.20
2023-03-25T09:39:14.955Z,8.15
2023-03-25T09:42:16.897Z,8.16
2023-03-25T09:45:15.074Z,8.17
2023-03-25T09:48:12.282Z,8.15
2023-03-25T09:50:43.063Z,8.12
2023-03-25T09:53:11.497Z,8.10
2023-03-25T09:55:45.701Z,8.09
2023-03-25T09:58:31.526Z,8.07
2023-03-25T10:01:12.788Z,8.07
2023-03-25T10:04:12.570Z,8.02
2023-03-25T10:07:01.509Z,7.99
2023-03-25T10:10:05.970Z,7.98
2023-03-25T10:12:57.328Z,7.93
2023-03-25T10:15:54.289Z,7.96
2023-03-25T10:18:47.925Z,8.05
2023-03-25T10:21:28.074Z,8.11
2023-03-25T10:24:01.852Z,8.11
2023-03-25T10:26:40.817Z,8.11
2023-03-25T10:29:14.859Z,8.12
2023-03-25T10:32:07.979Z,8.13
2023-03-25T10:34:47.549Z,8.16
2023-03-25T10:37:25.000Z,8.17
2023-03-25T10:39:53.265Z,8.14
2023-03-25T10:42:33.135Z,8.17
2023-03-25T10:45:01.582Z,8.16
2023-03-25T10:47:37.237Z,8.13
2023-03-25T10:50:06.147Z,8.13
2023-03-25T10:52:34.797Z,8.08
2023-03-25T10:55:03.448Z,8.05
2023-03-25T10:57:33.150Z,8.06
2023-03-25T11:00:21.348Z,8.05
2023-03-25T11:02:50.484Z,8.05
2023-03-25T11:05:25.596Z,8.05
2023-03-25T11:08:18.167Z,8.05
2023-03-25T11:10:58.369Z,8.03
2023-03-25T11:13:30.235Z,7.99
2023-03-25T11:16:04.721Z,7.95
2023-03-25T11:18:42.872Z,7.88
2023-03-25T11:21:14.610Z,7.81
2023-03-25T11:23:52.492Z,7.77
2023-03-25T11:26:22.603Z,7.72
2023-03-25T11:28:55.281Z,7.65
2023-03-25T11:31:28.205Z,7.59
2023-03-25T11:34:14.173Z,7.56
2023-03-25T11:37:00.549Z,7.51
2023-03-25T11:39:35.548Z,7.48
2023-03-25T11:42:47.024Z,7.39
2023-03-25T11:45:46.169Z,7.36
2023-03-25T11:48:20.413Z,7.33
2023-03-25T11:50:58.983Z,7.33
2023-03-25T11:53:29.239Z,7.31
2023-03-25T11:56:03.272Z,7.25
2023-03-25T11:58:39.119Z,7.16
2023-03-25T12:01:38.146Z,7.11
2023-03-25T12:04:24.700Z,7.08
2023-03-25T12:07:10.925Z,7.05
2023-03-25T12:09:39.166Z,7.01
2023-03-25T12:12:35.726Z,6.98
2023-03-25T12:15:32.325Z,6.91
2023-03-25T12:18:19.040Z,6.87
2023-03-25T12:21:05.292Z,6.86
2023-03-25T12:23:36.169Z,6.83
2023-03-25T12:26:19.801Z,6.77
2023-03-25T12:28:56.914Z,6.72
2023-03-25T12:31:49.352Z,6.67
2023-03-25T12:34:28.564Z,6.68
2023-03-25T12:37:06.692Z,6.70
2023-03-25T12:40:08.671Z,6.72
2023-03-25T12:42:39.566Z,6.73
2023-03-25T12:45:36.146Z,6.78
2023-03-25T12:48:42.924Z,6.83
2023-03-25T12:51:46.478Z,6.84
2023-03-25T12:54:34.680Z,6.84
2023-03-25T12:57:18.751Z,6.84
2023-03-25T13:00:15.078Z,6.87
2023-03-25T13:03:01.723Z,6.87
2023-03-25T13:05:51.250Z,6.86
2023-03-25T13:08:35.650Z,6.78
2023-03-25T13:11:24.750Z,6.76
2023-03-25T13:13:58.084Z,6.76
2023-03-25T13:16:31.889Z,6.81
2023-03-25T13:19:17.685Z,6.83
2023-03-25T13:21:53.438Z,6.82
2023-03-25T13:24:44.100Z,6.80
2023-03-25T13:27:17.913Z,6.75
2023-03-25T13:29:46.728Z,6.71
2023-03-25T13:32:23.594Z,6.65
2023-03-25T13:35:17.409Z,6.63
2023-03-25T13:37:54.179Z,6.59
2023-03-25T13:40:29.884Z,6.59
2023-03-25T13:43:04.234Z,6.54
2023-03-25T13:46:08.097Z,6.50
2023-03-25T13:49:02.328Z,6.52
2023-03-25T13:51:30.597Z,6.53
2023-03-25T13:54:15.533Z,6.52
2023-03-25T13:56:52.895Z,6.49
2023-03-25T13:59:52.953Z,6.49
2023-03-25T14:02:58.077Z,6.50
2023-03-25T14:05:32.543Z,6.49
2023-03-25T14:08:37.155Z,6.51
2023-03-25T14:11:22.542Z,6.48
2023-03-25T14:14:00.475Z,6.44
2023-03-25T14:16:35.798Z,6.39
2023-03-25T14:19:10.224Z,6.32
2023-03-25T14:21:39.088Z,6.28
2023-03-25T14:24:44.016Z,6.29
2023-03-25T14:27:18.824Z,6.28
2023-03-25T14:29:56.284Z,6.22
2023-03-25T14:32:24.643Z,6.28
2023-03-25T14:34:53.431Z,6.30
2023-03-25T14:37:28.195Z,6.29
2023-03-25T14:40:00.717Z,6.31
2023-03-25T14:42:43.310Z,6.34
2023-03-25T14:45:34.714Z,6.39
2023-03-25T14:48:22.912Z,6.41
2023-03-25T14:51:22.863Z,6.42
2023-03-25T14:54:05.660Z,6.48
2023-03-25T14:56:39.245Z,6.55
2023-03-25T14:59:22.089Z,6.65
2023-03-25T15:01:50.466Z,6.74
2023-03-25T15:04:35.124Z,6.83
2023-03-25T15:07:05.321Z,6.91
2023-03-25T15:09:33.701Z,7.04
2023-03-25T15:12:05.883Z,7.12
2023-03-25T15:14:40.223Z,7.18
2023-03-25T15:17:12.542Z,7.29
2023-03-25T15:20:11.328Z,7.38
2023-03-25T15:22:40.107Z,7.50
2023-03-25T15:25:20.264Z,7.58
2023-03-25T15:28:20.838Z,7.68
2023-03-25T15:31:12.021Z,7.77
2023-03-25T15:34:19.024Z,7.86
2023-03-25T15:37:04.087Z,7.97
2023-03-25T15:39:37.992Z,8.08
2023-03-25T15:42:17.987Z,8.18
2023-03-25T15:45:10.798Z,8.25
2023-03-25T15:48:12.997Z,8.33
2023-03-25T15:51:06.272Z,8.43
2023-03-25T15:53:57.706Z,8.53
2023-03-25T15:56:30.504Z,8.60
2023-03-25T15:59:20.465Z,8.63
2023-03-25T16:01:52.490Z,8.65
2023-03-25T16:04:45.300Z,8.70
2023-03-25T16:07:16.687Z,8.74
2023-03-25T16:09:51.478Z,8.81
2023-03-25T16:12:23.866Z,8.87
2023-03-25T16:14:53.764Z,8.89
2023-03-25T16:17:28.043Z,8.94
2023-03-25T16:19:58.011Z,9.03
2023-03-25T16:22:31.226Z,9.14
2023-03-25T16:25:02.487Z,9.22
2023-03-25T16:27:38.762Z,9.29
2023-03-25T16:30:40.847Z,9.37
2023-03-25T16:33:09.079Z,9.46
2023-03-25T16:35:43.414Z,9.54
2023-03-25T16:38:18.091Z,9.61
2023-03-25T16:40:47.890Z,9.65
2023-03-25T16:43:28.041Z,9.72
2023-03-25T16:46:02.916Z,9.82
2023-03-25T16:48:38.358Z,9.87
2023-03-25T16:51:18.651Z,9.88
2023-03-25T16:53:51.660Z,9.94
2023-03-25T16:56:24.615Z,9.96
2023-03-25T16:59:00.995Z,10.05
2023-03-25T17:01:33.379Z,10.09
2023-03-25T17:04:15.580Z,10.14
2023-03-25T17:06:47.934Z,10.19
2023-03-25T17:09:21.808Z,10.24
2023-03-25T17:11:57.639Z,10.33
2023-03-25T17:14:31.713Z,10.40
2023-03-25T17:17:04.345Z,10.48
2023-03-25T17:19:33.672Z,10.49
2023-03-25T17:22:05.035Z,10.52
2023-03-25T17:24:42.677Z,10.62
2023-03-25T17:27:35.558Z,10.69
2023-03-25T17:30:21.990Z,10.76
2023-03-25T17:32:51.890Z,10.80
2023-03-25T17:35:26.187Z,10.79
2023-03-25T17:37:54.960Z,10.80
2023-03-25T17:40:29.267Z,10.85
2023-03-25T17:42:58.423Z,10.92
2023-03-25T17:45:27.004Z,10.99
2023-03-25T17:47:55.307Z,11.08
2023-03-25T17:50:29.261Z,11.12
2023-03-25T17:52:58.277Z,11.16
2023-03-25T17:55:26.741Z,11.22
2023-03-25T17:57:55.637Z,11.26
2023-03-25T18:00:23.906Z,11.30
2023-03-25T18:02:52.399Z,11.28
2023-03-25T18:05:20.782Z,11.36
2023-03-25T18:07:49.027Z,11.39
2023-03-25T18:10:22.696Z,11.42
2023-03-25T18:12:51.058Z,11.48
2023-03-25T18:15:19.375Z,11.59
2023-03-25T18:17:47.867Z,11.69
2023-03-25T18:20:26.682Z,11.79
2023-03-25T18:22:55.912Z,11.84
2023-03-25T18:25:24.878Z,11.89
2023-03-25T18:27:55.722Z,11.88
2023-03-25T18:30:30.154Z,11.93
2023-03-25T18:32:58.580Z,12.01
2023-03-25T18:35:27.122Z,12.08
2023-03-25T18:37:55.390Z,12.07
2023-03-25T18:40:27.964Z,12.14
2023-03-25T18:42:56.819Z,12.16
2023-03-25T18:45:26.566Z,12.20
2023-03-25T18:47:55.288Z,12.20
2023-03-25T18:50:36.136Z,12.21
2023-03-25T18:53:05.809Z,12.28
2023-03-25T18:55:36.155Z,12.36
2023-03-25T18:58:05.381Z,12.39
2023-03-25T19:00:40.557Z,12.50
2023-03-25T19:03:09.092Z,12.60
2023-03-25T19:05:37.641Z,12.62
2023-03-25T19:08:08.628Z,12.71
2023-03-25T19:10:37.002Z,12.80
2023-03-25T19:13:05.272Z,12.96
2023-03-25T19:15:33.464Z,13.16
2023-03-25T19:18:04.453Z,13.27
2023-03-25T19:20:36.091Z,13.30
2023-03-25T19:23:06.065Z,13.30
2023-03-25T19:25:34.323Z,13.42
2023-03-25T19:28:02.633Z,13.52
2023-03-25T19:30:31.887Z,13.65
2023-03-25T19:33:00.978Z,13.69
2023-03-25T19:35:30.040Z,13.81
2023-03-25T19:37:58.851Z,13.94
2023-03-25T19:40:28.926Z,13.95
2023-03-25T19:42:59.036Z,14.01
2023-03-25T19:45:30.535Z,14.09
2023-03-25T19:47:59.119Z,14.11
2023-03-25T19:50:32.044Z,14.17
2023-03-25T19:53:03.234Z,14.28
2023-03-25T19:55:31.562Z,14.26
2023-03-25T19:57:59.833Z,14.28
2023-03-25T20:00:29.888Z,14.33
2023-03-25T20:03:02.081Z,14.29
2023-03-25T20:05:32.424Z,14.28
2023-03-25T20:08:00.963Z,14.30
2023-03-25T20:10:31.522Z,14.42
2023-03-25T20:13:00.919Z,14.55
2023-03-25T20:15:29.254Z,14.67
2023-03-25T20:17:57.602Z,14.82
2023-03-25T20:20:25.802Z,15.01
2023-03-25T20:22:54.400Z,15.01
2023-03-25T20:25:23.373Z,14.96
2023-03-25T20:27:52.386Z,14.97
2023-03-25T20:30:21.175Z,15.05
2023-03-25T20:32:49.494Z,15.17
2023-03-25T20:35:19.286Z,15.22
2023-03-25T20:37:49.644Z,15.33
2023-03-25T20:40:23.425Z,15.45
2023-03-25T20:42:56.293Z,15.39
2023-03-25T20:45:30.114Z,15.36
2023-03-25T20:47:58.940Z,15.53
2023-03-25T20:50:28.018Z,15.77
2023-03-25T20:52:56.469Z,15.77
2023-03-25T20:55:27.405Z,15.71
2023-03-25T20:57:55.673Z,15.80
2023-03-25T21:00:24.040Z,15.83
2023-03-25T21:02:53.280Z,16.00
2023-03-25T21:05:21.496Z,16.01
2023-03-25T21:07:49.770Z,16.11
2023-03-25T21:10:18.826Z,16.08
2023-03-25T21:12:48.033Z,16.20
2023-03-25T21:15:16.521Z,16.43
2023-03-25T21:17:45.001Z,16.48
2023-03-25T21:20:13.307Z,16.36
2023-03-25T21:22:44.425Z,16.44
2023-03-25T21:25:15.253Z,16.58
2023-03-25T21:27:45.788Z,16.71
2023-03-25T21:30:15.729Z,16.85
2023-03-25T21:32:44.229Z,17.07
2023-03-25T21:35:12.507Z,17.20
2023-03-25T21:37:40.783Z,17.34
2023-03-25T21:40:12.216Z,17.41
2023-03-25T21:42:46.931Z,17.41
2023-03-25T21:45:17.158Z,17.47
2023-03-25T21:47:48.344Z,17.50
2023-03-25T21:50:17.251Z,17.58
2023-03-25T21:52:49.005Z,17.51
2023-03-25T21:55:17.700Z,17.50
2023-03-25T21:57:48.332Z,17.71
2023-03-25T22:00:19.077Z,17.98
2023-03-25T22:02:48.321Z,18.08
2023-03-25T22:05:17.632Z,18.17
2023-03-25T22:07:46.220Z,18.26
2023-03-25T22:10:14.555Z,18.38
2023-03-25T22:12:42.847Z,18.27
2023-03-25T22:15:11.680Z,18.25
2023-03-25T22:17:39.959Z,18.28
2023-03-25T22:20:09.607Z,18.28
2023-03-25T22:22:37.855Z,18.37
2023-03-25T22:25:07.800Z,18.44
2023-03-25T22:27:37.332Z,18.31
2023-03-25T22:30:08.547Z,18.25
2023-03-25T22:32:37.303Z,18.29
2023-03-25T22:35:06.042Z,18.16
2023-03-25T22:37:37.688Z,18.10
2023-03-25T22:40:09.365Z,17.88
2023-03-25T22:42:37.727Z,17.70
2023-03-25T22:45:06.853Z,17.67
2023-03-25T22:47:35.227Z,17.72
2023-03-25T22:50:03.546Z,17.81
2023-03-25T22:52:31.822Z,17.87
2023-03-25T22:55:00.116Z,17.66
2023-03-25T22:57:28.614Z,17.41
2023-03-25T22:59:56.794Z,17.20
2023-03-25T23:02:25.098Z,17.02
2023-03-25T23:04:53.355Z,16.80
2023-03-25T23:07:21.644Z,16.64
2023-03-25T23:09:49.808Z,16.44
2023-03-25T23:12:23.768Z,16.13
2023-03-25T23:14:57.639Z,15.83
2023-03-25T23:17:26.792Z,15.68
2023-03-25T23:19:55.486Z,15.59
2023-03-25T23:22:23.941Z,15.52
2023-03-25T23:24:52.264Z,15.46
2023-03-25T23:27:20.482Z,15.32
2023-03-25T23:29:48.913Z,15.20
2023-03-25T23:32:17.304Z,15.12
2023-03-25T23:34:46.261Z,15.08
2023-03-25T23:37:14.502Z,15.01
2023-03-25T23:39:42.883Z,15.08
2023-03-25T23:42:11.164Z,15.17
2023-03-25T23:44:39.399Z,15.09
2023-03-25T23:47:07.583Z,15.04
2023-03-25T23:49:39.006Z,15.00
2023-03-25T23:52:11.961Z,15.00
2023-03-25T23:54:40.799Z,14.94
2023-03-25T23:57:09.105Z,14.91
2023-03-25T23:59:37.446Z,14.91
